createdAt,value
2023-02-03T00:03:25.586Z,102534.00
2023-02-03T00:13:48.290Z,102513.00
2023-02-03T00:24:11.022Z,102512.00
2023-02-03T00:34:32.688Z,102468.00
2023-02-03T00:44:56.598Z,102445.00
2023-02-03T00:55:19.869Z,102407.00
2023-02-03T01:05:44.577Z,102414.00
2023-02-03T01:16:09.031Z,102395.00
2023-02-03T01:26:37.181Z,102370.00
2023-02-03T01:37:03.130Z,102347.00
2023-02-03T01:47:58.357Z,102321.00
2023-02-03T01:58:39.357Z,102277.00
2023-02-03T02:09:13.371Z,102268.00
2023-02-03T02:20:07.726Z,102238.00
2023-02-03T02:30:55.725Z,102202.00
2023-02-03T02:41:24.559Z,102170.00
2023-02-03T02:51:49.699Z,102139.00
2023-02-03T03:02:24.508Z,102110.00
2023-02-03T03:12:50.976Z,102082.00
2023-02-03T03:23:23.758Z,102063.00
2023-02-03T03:33:47.989Z,102029.00
2023-02-03T03:44:16.972Z,102001.00
2023-02-03T03:54:41.097Z,101988.00
2023-02-03T04:05:05.512Z,101984.00
2023-02-03T04:15:27.325Z,101948.00
2023-02-03T04:25:50.373Z,101909.00
2023-02-03T04:36:11.690Z,101885.00
2023-02-03T04:46:41.921Z,101852.00
2023-02-03T04:57:17.258Z,101820.00
2023-02-03T05:08:30.798Z,101792.00
2023-02-03T05:18:58.954Z,101796.00
2023-02-03T05:29:29.999Z,101785.00
2023-02-03T05:40:22.416Z,101771.00
2023-02-03T05:50:48.109Z,101747.00
2023-02-03T06:01:11.678Z,101705.00
2023-02-03T06:11:35.930Z,101678.00
2023-02-03T06:22:04.507Z,101655.00
2023-02-03T06:32:27.473Z,101643.00
2023-02-03T06:42:50.798Z,101646.00
2023-02-03T06:53:14.894Z,101617.00
2023-02-03T07:03:48.960Z,101607.00
2023-02-03T07:14:29.472Z,101583.00
2023-02-03T07:24:51.447Z,101542.00
2023-02-03T07:35:26.610Z,101530.00
2023-02-03T07:57:01.358Z,101484.00
2023-02-03T08:07:48.786Z,101455.00
2023-02-03T08:18:24.754Z,101446.00
2023-02-03T08:28:52.861Z,101418.00
2023-02-03T08:50:23.541Z,101384.00
2023-02-03T09:01:14.518Z,101368.00
2023-02-03T09:11:40.436Z,101363.00
2023-02-03T09:22:06.266Z,101355.00
2023-02-03T09:32:31.352Z,101324.00
2023-02-03T09:43:03.417Z,101309.00
2023-02-03T09:53:30.410Z,101308.00
2023-02-03T10:04:08.871Z,101291.00
2023-02-03T10:14:55.540Z,101244.00
2023-02-03T10:25:27.125Z,101198.00
2023-02-03T10:36:04.566Z,101195.00
2023-02-03T10:47:20.043Z,101215.00
2023-02-03T10:57:22.705Z,101276.00
2023-02-03T11:08:08.273Z,244657.00
2023-02-03T11:18:59.886Z,244657.00
2023-02-03T11:29:54.419Z,244657.00
2023-02-03T11:41:11.901Z,244657.00
2023-02-03T11:52:35.044Z,244657.00
2023-02-03T12:03:21.660Z,244657.00
2023-02-03T12:14:08.373Z,244657.00
2023-02-03T12:24:41.957Z,244657.00
2023-02-03T12:35:35.903Z,244657.00
2023-02-03T12:46:32.450Z,244657.00
2023-02-03T12:57:04.453Z,244657.00
2023-02-03T13:19:41.277Z,244657.00
2023-02-03T13:30:44.351Z,244657.00
2023-02-03T13:41:12.318Z,244657.00
2023-02-03T13:51:36.946Z,244657.00
2023-02-03T14:02:40.498Z,244657.00
2023-02-03T14:13:54.929Z,244657.00
2023-02-03T14:25:00.578Z,244657.00
2023-02-03T14:35:35.791Z,244657.00
2023-02-03T14:46:42.844Z,244657.00
2023-02-03T14:58:06.412Z,244657.00
2023-02-03T15:09:49.509Z,244657.00
2023-02-03T15:20:30.228Z,244657.00
2023-02-03T15:30:59.474Z,244657.00
2023-02-03T15:41:24.135Z,244657.00
2023-02-03T15:51:57.300Z,244657.00
2023-02-03T16:02:31.650Z,244657.00
2023-02-03T16:12:58.689Z,244657.00
2023-02-03T16:26:15.620Z,244657.00
2023-02-03T16:35:18.310Z,244657.00
2023-02-03T16:45:57.356Z,244657.00
2023-02-03T16:56:27.920Z,244657.00
2023-02-03T17:06:52.247Z,244657.00
2023-02-03T17:17:34.851Z,244657.00
2023-02-03T17:27:57.855Z,244657.00
2023-02-03T17:38:21.111Z,244657.00
